Time;durP1;ratioP1;P1;durP2;ratioP2;P2;SDS_P1;SDS_P2;PMS_P1;PMS_P2;Temp;Humidity;BMP_temperature;BMP_pressure;BME280_temperature;BME280_humidity;BME280_pressure;Samples;Min_cycle;Max_cycle;Signal;HPM_P1;HPM_P2
2024/01/17 00:00:49;;;;;;;15.30;7.40;;;-5.90;99.90;;;;;;5057331;28;20669;-59
2024/01/17 00:03:15;;;;;;;21.40;8.10;;;-5.90;99.90;;;;;;5069972;28;20426;-60
2024/01/17 00:05:40;;;;;;;13.43;6.90;;;-5.90;99.90;;;;;;5061842;28;20327;-60
2024/01/17 00:08:06;;;;;;;20.00;7.10;;;-5.80;99.90;;;;;;5073655;28;20667;-60
2024/01/17 00:10:32;;;;;;;23.73;8.80;;;-6.00;99.90;;;;;;5054246;28;20217;-60
2024/01/17 00:12:57;;;;;;;18.30;8.30;;;-6.00;99.90;;;;;;5054713;28;20178;-60
2024/01/17 00:15:23;;;;;;;21.80;8.50;;;-6.10;99.90;;;;;;5057830;28;20268;-60
2024/01/17 00:17:48;;;;;;;25.87;9.17;;;-6.10;99.90;;;;;;5050913;28;20261;-60
2024/01/17 00:20:14;;;;;;;21.87;8.67;;;-6.00;99.90;;;;;;5054163;28;20554;-60
2024/01/17 00:22:40;;;;;;;19.90;8.70;;;-6.10;99.90;;;;;;5054980;28;20193;-60
2024/01/17 00:25:08;;;;;;;34.87;9.07;;;-6.10;99.90;;;;;;5067142;28;20420;-60
2024/01/17 00:27:35;;;;;;;20.73;8.10;;;-6.10;99.90;;;;;;5053972;28;20213;-60
2024/01/17 00:30:00;;;;;;;22.17;9.03;;;-6.00;99.90;;;;;;5053816;28;20464;-61
2024/01/17 00:32:26;;;;;;;25.97;8.50;;;-6.00;99.90;;;;;;5053995;28;20416;-60
2024/01/17 00:34:52;;;;;;;15.90;7.43;;;-5.90;99.90;;;;;;5054146;28;20638;-60
2024/01/17 00:37:18;;;;;;;19.90;8.60;;;-5.80;99.90;;;;;;5054300;28;20205;-63
2024/01/17 00:39:43;;;;;;;19.57;8.67;;;-5.80;99.90;;;;;;5054127;28;20198;-62
2024/01/17 00:42:09;;;;;;;17.73;8.80;;;-5.70;99.90;;;;;;5054147;28;20458;-62
2024/01/17 00:44:38;;;;;;;27.17;8.70;;;-5.60;99.90;;;;;;5054273;28;20186;-62
2024/01/17 00:47:04;;;;;;;16.83;7.23;;;-5.60;99.90;;;;;;5053518;28;20208;-62
2024/01/17 00:49:29;;;;;;;21.03;8.50;;;-5.50;99.90;;;;;;5053699;28;20420;-62
2024/01/17 00:51:55;;;;;;;26.00;9.47;;;-5.60;99.90;;;;;;5054074;28;20586;-62
2024/01/17 00:54:20;;;;;;;28.93;8.50;;;-5.50;99.90;;;;;;5053935;28;20631;-63
2024/01/17 00:56:46;;;;;;;24.50;7.40;;;-5.40;99.90;;;;;;5054125;28;20214;-62
2024/01/17 00:59:11;;;;;;;21.93;7.83;;;-5.40;99.90;;;;;;5053748;28;20190;-62
2024/01/17 01:01:37;;;;;;;18.90;7.80;;;-5.40;99.90;;;;;;5053345;28;20185;-62
2024/01/17 01:04:02;;;;;;;22.03;8.93;;;-5.30;99.90;;;;;;5053314;28;20213;-62
2024/01/17 01:06:28;;;;;;;20.23;6.80;;;-5.20;99.90;;;;;;5067449;28;20633;-62
2024/01/17 01:08:54;;;;;;;14.53;6.37;;;-5.10;99.90;;;;;;5053532;28;20551;-62
2024/01/17 01:11:19;;;;;;;19.93;6.53;;;-5.00;99.90;;;;;;5042681;28;20252;-62
2024/01/17 01:13:45;;;;;;;24.43;8.60;;;-5.00;99.90;;;;;;5052638;28;20456;-62
2024/01/17 01:16:10;;;;;;;21.20;8.27;;;-4.80;99.90;;;;;;5052514;28;20189;-62
2024/01/17 01:18:36;;;;;;;20.13;8.20;;;-4.70;99.90;;;;;;5066063;28;20185;-62
2024/01/17 01:21:01;;;;;;;18.37;7.70;;;-4.60;99.90;;;;;;5061898;28;20189;-62
2024/01/17 01:23:27;;;;;;;15.83;7.73;;;-4.60;99.90;;;;;;5053447;28;20220;-62
2024/01/17 01:25:53;;;;;;;18.40;8.27;;;-4.40;99.90;;;;;;5053503;28;20556;-62
2024/01/17 01:28:19;;;;;;;17.73;8.43;;;-4.40;99.90;;;;;;5053350;28;20194;-63
2024/01/17 01:30:44;;;;;;;20.33;7.83;;;-4.30;99.90;;;;;;5052977;28;20213;-62
2024/01/17 01:33:10;;;;;;;15.30;7.43;;;-4.20;99.90;;;;;;5052592;28;20196;-62
2024/01/17 01:35:35;;;;;;;13.67;6.67;;;-4.20;99.90;;;;;;5053360;28;20522;-62
2024/01/17 01:38:01;;;;;;;15.17;7.40;;;-4.20;99.90;;;;;;5053074;28;20177;-62
2024/01/17 01:40:26;;;;;;;17.33;7.67;;;-4.20;99.90;;;;;;5053270;28;20189;-62
2024/01/17 01:42:53;;;;;;;16.77;8.47;;;-4.20;99.90;;;;;;5066372;28;20524;-62
2024/01/17 01:45:18;;;;;;;19.23;7.77;;;-4.10;99.90;;;;;;5052850;28;20185;-62
2024/01/17 01:47:44;;;;;;;17.40;8.50;;;-4.10;99.90;;;;;;5058961;28;20431;-62
2024/01/17 01:50:11;;;;;;;19.87;7.40;;;-4.10;99.90;;;;;;5062329;28;20221;-62
2024/01/17 01:52:39;;;;;;;17.53;9.57;;;-4.10;99.90;;;;;;5066588;28;20182;-62
2024/01/17 01:55:06;;;;;;;19.63;7.13;;;-4.00;99.90;;;;;;5053110;28;20822;-62
2024/01/17 01:57:36;;;;;;;21.43;7.57;;;-3.90;99.90;;;;;;5052550;28;20447;-62
2024/01/17 02:00:04;;;;;;;16.40;8.10;;;-3.70;99.90;;;;;;5052917;28;20420;-63
2024/01/17 02:02:31;;;;;;;18.20;7.73;;;-3.70;99.90;;;;;;5064503;28;20943;-60
2024/01/17 02:04:59;;;;;;;16.30;7.00;;;-3.50;99.90;;;;;;5051878;28;21039;-60
2024/01/17 02:07:27;;;;;;;18.60;8.03;;;-3.50;99.90;;;;;;5052683;28;20451;-60
2024/01/17 02:09:53;;;;;;;18.57;7.10;;;-3.40;99.90;;;;;;5052376;28;20416;-60
2024/01/17 02:12:19;;;;;;;13.07;6.70;;;-3.20;99.90;;;;;;5049783;28;20515;-63
2024/01/17 02:14:44;;;;;;;15.87;7.50;;;-3.00;99.90;;;;;;5049342;28;20508;-60
2024/01/17 02:17:10;;;;;;;13.33;6.77;;;-2.90;99.90;;;;;;5063869;28;20196;-61
2024/01/17 02:19:37;;;;;;;19.60;7.13;;;-2.90;99.90;;;;;;5053263;28;20329;-59
2024/01/17 02:22:03;;;;;;;14.40;7.87;;;-2.80;99.90;;;;;;5071209;28;20235;-61
2024/01/17 02:24:28;;;;;;;14.80;6.30;;;-2.70;99.90;;;;;;5052054;28;20424;-61
2024/01/17 02:26:54;;;;;;;15.77;7.23;;;-2.70;99.90;;;;;;5052331;28;20181;-60
2024/01/17 02:29:21;;;;;;;22.23;7.00;;;-2.70;99.90;;;;;;5052154;28;20181;-60
2024/01/17 02:31:47;;;;;;;17.03;7.90;;;-2.60;99.90;;;;;;5051922;28;20983;-61
2024/01/17 02:34:13;;;;;;;14.70;7.33;;;-2.60;99.90;;;;;;5065097;28;20462;-61
2024/01/17 02:36:38;;;;;;;18.60;7.83;;;-2.50;99.90;;;;;;5052201;28;20835;-61
2024/01/17 02:39:04;;;;;;;18.77;7.57;;;-2.50;99.90;;;;;;5053474;28;20189;-61
2024/01/17 02:41:30;;;;;;;21.27;7.87;;;-2.40;99.90;;;;;;5064213;28;20193;-61
2024/01/17 02:43:56;;;;;;;17.63;6.63;;;-2.30;99.90;;;;;;5060888;28;20450;-61
2024/01/17 02:46:25;;;;;;;17.40;7.47;;;-2.30;99.90;;;;;;5071945;28;20189;-61
2024/01/17 02:48:51;;;;;;;15.43;7.47;;;-2.30;99.90;;;;;;5055947;28;20606;-61
2024/01/17 02:51:16;;;;;;;14.47;7.37;;;-2.20;99.90;;;;;;5051765;28;21054;-61
2024/01/17 02:53:42;;;;;;;13.33;6.97;;;-2.10;99.90;;;;;;5051599;28;20190;-61
2024/01/17 02:56:07;;;;;;;18.83;8.17;;;-2.00;99.90;;;;;;5051967;28;20288;-61
2024/01/17 02:58:33;;;;;;;19.90;7.37;;;-2.00;99.90;;;;;;5051530;28;20190;-61
2024/01/17 03:00:58;;;;;;;15.50;6.60;;;-1.90;99.90;;;;;;5051540;28;20190;-61
2024/01/17 03:03:24;;;;;;;14.83;7.97;;;-1.90;99.90;;;;;;5066961;28;20189;-61
2024/01/17 03:05:49;;;;;;;15.57;7.57;;;-1.90;99.90;;;;;;5071438;28;20228;-61
2024/01/17 03:08:15;;;;;;;15.53;7.70;;;-1.90;99.90;;;;;;5056429;28;20300;-61
2024/01/17 03:10:40;;;;;;;18.13;8.60;;;-1.80;99.90;;;;;;5047496;28;20205;-61
2024/01/17 03:13:08;;;;;;;16.30;7.13;;;-1.80;99.90;;;;;;5049167;28;20612;-61
2024/01/17 03:15:34;;;;;;;13.30;6.90;;;-1.80;99.90;;;;;;5060165;28;20181;-61
2024/01/17 03:18:00;;;;;;;16.53;7.10;;;-1.80;99.90;;;;;;5057679;28;20511;-61
2024/01/17 03:20:25;;;;;;;16.27;7.27;;;-1.90;99.90;;;;;;5062966;28;20889;-61
2024/01/17 03:22:53;;;;;;;23.10;9.43;;;-1.90;99.90;;;;;;5061010;28;20192;-61
2024/01/17 03:25:18;;;;;;;24.63;9.20;;;-1.90;99.90;;;;;;5063102;28;20174;-61
2024/01/17 03:27:44;;;;;;;18.67;8.23;;;-1.90;99.90;;;;;;5053901;28;20902;-61
2024/01/17 03:30:10;;;;;;;20.57;8.17;;;-1.90;99.90;;;;;;5064458;28;20213;-62
2024/01/17 03:32:35;;;;;;;16.73;8.20;;;-1.90;99.90;;;;;;5056045;28;20174;-61
2024/01/17 03:35:01;;;;;;;17.93;8.13;;;-1.90;99.90;;;;;;5059677;28;20473;-61
2024/01/17 03:37:27;;;;;;;17.77;9.27;;;-1.90;99.90;;;;;;5058057;28;20260;-61
2024/01/17 03:39:53;;;;;;;21.97;9.97;;;-2.00;99.90;;;;;;5069545;28;20517;-60
2024/01/17 03:42:18;;;;;;;21.03;8.70;;;-2.00;99.90;;;;;;5073459;28;20197;-61
2024/01/17 03:44:44;;;;;;;17.27;8.30;;;-2.00;99.90;;;;;;5063788;28;20181;-61
2024/01/17 03:47:11;;;;;;;20.30;9.30;;;-1.90;99.90;;;;;;5073045;28;20256;-61
2024/01/17 03:49:37;;;;;;;19.93;10.07;;;-1.80;99.90;;;;;;5054706;28;20411;-61
2024/01/17 03:52:03;;;;;;;15.10;8.13;;;-1.70;99.90;;;;;;5055920;28;20467;-61
2024/01/17 03:54:28;;;;;;;17.80;8.10;;;-1.60;99.90;;;;;;5055153;28;20420;-61
2024/01/17 03:56:54;;;;;;;16.00;7.77;;;-1.50;99.90;;;;;;5055090;28;20416;-61
2024/01/17 03:59:19;;;;;;;21.10;9.00;;;-1.40;99.90;;;;;;5054826;28;20185;-61
2024/01/17 04:01:45;;;;;;;18.73;8.90;;;-1.40;99.90;;;;;;5056913;28;20228;-61
2024/01/17 04:04:11;;;;;;;22.03;9.70;;;-1.40;99.90;;;;;;5074544;28;20296;-61
2024/01/17 04:06:36;;;;;;;16.60;9.40;;;-1.40;99.90;;;;;;5061096;28;20194;-61
2024/01/17 04:09:02;;;;;;;21.80;9.60;;;-1.40;99.90;;;;;;5063907;28;20235;-61
2024/01/17 04:11:28;;;;;;;17.83;8.30;;;-1.60;99.90;;;;;;5060082;28;20219;-61
2024/01/17 04:13:53;;;;;;;22.97;9.60;;;-1.60;99.90;;;;;;5061595;28;20559;-61
2024/01/17 04:16:19;;;;;;;25.77;11.13;;;-1.60;99.90;;;;;;5068873;28;20275;-61
2024/01/17 04:18:44;;;;;;;16.80;8.67;;;-1.70;99.90;;;;;;5062757;28;20625;-61
2024/01/17 04:21:19;;;;;;;18.40;9.33;;;-1.60;99.90;;;;;;5056572;28;20193;-61
2024/01/17 04:23:47;;;;;;;22.97;9.53;;;-1.60;99.90;;;;;;5059252;28;20288;-61
2024/01/17 04:26:23;;;;;;;21.93;9.73;;;-1.60;99.90;;;;;;5058029;28;20915;-61
2024/01/17 04:28:54;;;;;;;19.50;9.30;;;-1.50;99.90;;;;;;5069711;28;20427;-61
2024/01/17 04:31:30;;;;;;;16.10;9.00;;;-1.50;99.90;;;;;;5053757;28;20460;-61
2024/01/17 04:33:57;;;;;;;23.83;9.47;;;-1.50;99.90;;;;;;5067741;28;20426;-62
2024/01/17 04:36:26;;;;;;;17.57;9.37;;;-1.40;99.90;;;;;;5061096;28;20749;-61
2024/01/17 04:38:53;;;;;;;32.67;10.77;;;-1.40;99.90;;;;;;5053852;28;20424;-61
2024/01/17 04:41:18;;;;;;;20.37;9.90;;;-1.40;99.90;;;;;;5054348;28;20427;-61
2024/01/17 04:43:44;;;;;;;17.13;9.10;;;-1.40;99.90;;;;;;5053912;28;20182;-61
2024/01/17 04:46:12;;;;;;;23.30;9.20;;;-1.40;99.90;;;;;;5053891;28;20243;-61
2024/01/17 04:48:39;;;;;;;18.70;9.67;;;-1.40;99.90;;;;;;5053478;28;20473;-61
2024/01/17 04:51:05;;;;;;;20.23;9.30;;;-1.30;99.90;;;;;;5053572;28;20512;-61
2024/01/17 04:53:32;;;;;;;19.90;9.50;;;-1.30;99.90;;;;;;5053517;28;20515;-61
2024/01/17 04:55:58;;;;;;;21.07;10.03;;;-1.30;99.90;;;;;;5062273;28;20408;-61
2024/01/17 04:58:24;;;;;;;21.90;9.63;;;-1.30;99.90;;;;;;5058637;28;20920;-61
2024/01/17 05:00:49;;;;;;;23.30;10.03;;;-1.20;99.90;;;;;;5061061;28;20431;-61
2024/01/17 05:03:15;;;;;;;21.07;9.50;;;-1.20;99.90;;;;;;5059738;28;20259;-61
2024/01/17 05:05:43;;;;;;;16.17;8.33;;;-1.20;99.90;;;;;;5063163;28;20236;-61
2024/01/17 05:08:09;;;;;;;20.47;9.43;;;-1.20;99.90;;;;;;5055348;28;20425;-61
2024/01/17 05:10:35;;;;;;;18.57;9.53;;;-1.10;99.90;;;;;;5049127;28;20473;-61
2024/01/17 05:13:00;;;;;;;23.10;10.70;;;-1.10;99.90;;;;;;5046527;28;20482;-61
2024/01/17 05:15:26;;;;;;;22.80;11.70;;;-1.20;99.90;;;;;;5051954;28;20186;-61
2024/01/17 05:17:51;;;;;;;22.77;9.80;;;-1.10;99.90;;;;;;5052801;28;20188;-61
2024/01/17 05:20:17;;;;;;;23.43;11.70;;;-1.00;99.90;;;;;;5054226;28;20194;-63
2024/01/17 05:22:43;;;;;;;26.67;11.70;;;-1.00;99.90;;;;;;5053492;28;20574;-63
2024/01/17 05:25:11;;;;;;;25.73;10.30;;;-1.00;99.90;;;;;;5059179;28;20672;-62
2024/01/17 05:27:40;;;;;;;24.17;10.03;;;-1.00;99.90;;;;;;5053428;28;20588;-62
2024/01/17 05:30:09;;;;;;;27.77;11.60;;;-1.00;99.90;;;;;;5054224;28;20436;-63
2024/01/17 05:32:36;;;;;;;27.73;11.53;;;-1.00;99.90;;;;;;5050973;28;20508;-63
2024/01/17 05:35:01;;;;;;;20.73;10.53;;;-0.90;99.90;;;;;;5064856;28;20418;-63
2024/01/17 05:37:27;;;;;;;29.87;12.50;;;-0.90;99.90;;;;;;5054581;28;20429;-63
2024/01/17 05:39:52;;;;;;;24.20;11.00;;;-0.90;99.90;;;;;;5057534;28;20324;-63
2024/01/17 05:42:18;;;;;;;32.10;12.67;;;-0.90;99.90;;;;;;5053154;28;20677;-63
2024/01/17 05:44:43;;;;;;;24.63;11.30;;;-0.80;99.90;;;;;;5052057;28;20184;-63
2024/01/17 05:47:09;;;;;;;26.00;12.93;;;-0.20;99.90;;;;;;5066284;28;20185;-63
2024/01/17 05:49:34;;;;;;;32.00;13.70;;;-0.70;99.90;;;;;;5052428;28;20243;-63
2024/01/17 05:52:00;;;;;;;28.17;12.80;;;-0.70;99.90;;;;;;5059263;28;20217;-64
2024/01/17 05:54:25;;;;;;;35.90;14.00;;;-0.70;99.90;;;;;;5060102;28;20181;-64
2024/01/17 05:56:51;;;;;;;31.13;13.20;;;-0.70;99.90;;;;;;5070174;28;20204;-63
2024/01/17 05:59:16;;;;;;;28.47;14.70;;;-0.60;99.90;;;;;;5051813;28;20609;-63
2024/01/17 06:01:42;;;;;;;24.10;12.20;;;-0.60;99.90;;;;;;5065396;28;20185;-63
2024/01/17 06:04:08;;;;;;;33.50;14.07;;;-0.70;99.90;;;;;;5052010;28;20217;-63
2024/01/17 06:06:33;;;;;;;27.17;12.40;;;-0.70;99.90;;;;;;5052565;28;20239;-63
2024/01/17 06:08:59;;;;;;;26.30;13.20;;;-0.70;99.90;;;;;;5052669;28;20634;-64
2024/01/17 06:11:24;;;;;;;31.13;13.93;;;-0.70;99.90;;;;;;5042798;28;20245;-64
2024/01/17 06:13:51;;;;;;;32.47;12.87;;;-0.70;99.90;;;;;;5049372;28;20784;-64
2024/01/17 06:16:17;;;;;;;32.20;13.50;;;-0.70;99.90;;;;;;5057091;28;20169;-64
2024/01/17 06:18:42;;;;;;;28.27;12.17;;;-0.80;99.90;;;;;;5051985;28;20443;-63
2024/01/17 06:21:08;;;;;;;27.03;13.27;;;-0.80;99.90;;;;;;5044905;28;20213;-63
2024/01/17 06:23:33;;;;;;;35.17;13.73;;;-0.80;99.90;;;;;;5052173;28;20514;-63
2024/01/17 06:25:59;;;;;;;34.03;14.47;;;-0.70;99.90;;;;;;5052347;28;20193;-63
2024/01/17 06:28:24;;;;;;;29.60;12.57;;;-0.70;99.90;;;;;;5052168;28;20629;-63
2024/01/17 06:30:50;;;;;;;32.87;13.20;;;-0.60;99.90;;;;;;5052454;28;20217;-63
2024/01/17 06:33:17;;;;;;;33.27;14.50;;;-0.60;99.90;;;;;;5051580;28;20681;-63
2024/01/17 06:35:43;;;;;;;39.50;16.30;;;-0.60;99.90;;;;;;5053218;28;20276;-63
2024/01/17 06:38:09;;;;;;;35.37;14.00;;;-0.60;99.90;;;;;;5064314;28;20830;-63
2024/01/17 06:40:34;;;;;;;21.40;11.00;;;-0.50;99.90;;;;;;5066284;28;20196;-63
2024/01/17 06:43:00;;;;;;;28.53;13.20;;;-0.60;99.90;;;;;;5046281;28;20196;-63
2024/01/17 06:45:25;;;;;;;33.43;14.27;;;-0.60;99.90;;;;;;5065753;28;20267;-63
2024/01/17 06:47:51;;;;;;;23.07;11.93;;;-0.60;99.90;;;;;;5051714;28;20645;-63
2024/01/17 06:50:18;;;;;;;32.03;13.10;;;-0.50;99.90;;;;;;5051749;28;20213;-63
2024/01/17 06:52:44;;;;;;;27.83;14.43;;;-0.50;99.90;;;;;;5059626;28;20596;-63
2024/01/17 06:55:10;;;;;;;28.17;14.80;;;-0.50;99.90;;;;;;5045862;28;20503;-63
2024/01/17 06:57:35;;;;;;;26.83;12.80;;;-0.40;99.90;;;;;;5052567;28;20257;-64
2024/01/17 07:00:02;;;;;;;27.20;12.97;;;-0.40;99.90;;;;;;5052713;28;20185;-63
2024/01/17 07:02:28;;;;;;;27.20;13.10;;;-0.40;99.90;;;;;;5064190;28;20188;-63
2024/01/17 07:04:53;;;;;;;29.80;12.33;;;-0.30;99.90;;;;;;5051158;28;20456;-63
2024/01/17 07:07:18;;;;;;;40.17;14.40;;;-0.30;99.90;;;;;;5033826;28;21092;-63
2024/01/17 07:09:45;;;;;;;33.53;15.33;;;-0.20;99.90;;;;;;5041687;28;20186;-63
2024/01/17 07:12:10;;;;;;;28.60;13.13;;;-0.30;99.90;;;;;;5047979;28;20216;-63
2024/01/17 07:14:36;;;;;;;28.90;13.50;;;-0.30;99.90;;;;;;5052160;28;20961;-63
2024/01/17 07:17:01;;;;;;;30.03;13.47;;;-0.30;99.90;;;;;;5057832;28;20638;-63
2024/01/17 07:19:27;;;;;;;20.70;10.37;;;-0.30;99.90;;;;;;5061770;28;20209;-63
2024/01/17 07:21:52;;;;;;;21.73;11.93;;;-0.20;99.90;;;;;;5057598;28;20311;-63
2024/01/17 07:24:18;;;;;;;27.97;10.60;;;-0.10;99.90;;;;;;5058679;28;20232;-63
2024/01/17 07:26:44;;;;;;;27.77;9.97;;;0.00;99.90;;;;;;5061309;28;20185;-63
2024/01/17 07:29:10;;;;;;;25.73;10.57;;;0.00;99.90;;;;;;5059672;28;20455;-63
2024/01/17 07:31:35;;;;;;;22.63;9.23;;;0.10;99.90;;;;;;5062461;28;20280;-64
2024/01/17 07:34:00;;;;;;;24.87;10.03;;;0.20;99.90;;;;;;5067281;28;20634;-64
2024/01/17 07:36:26;;;;;;;19.27;9.37;;;0.20;99.90;;;;;;5062291;28;20184;-64
2024/01/17 07:38:51;;;;;;;34.70;10.90;;;0.20;99.90;;;;;;5058901;28;20850;-63
2024/01/17 07:41:17;;;;;;;21.80;9.37;;;0.20;99.90;;;;;;5054752;28;20189;-64
2024/01/17 07:43:43;;;;;;;27.20;9.80;;;0.30;99.90;;;;;;5061812;28;20188;-64
2024/01/17 07:46:09;;;;;;;19.57;9.00;;;0.30;99.90;;;;;;5054535;28;20224;-64
2024/01/17 07:48:34;;;;;;;23.30;10.80;;;0.40;99.90;;;;;;5053356;28;20428;-64
2024/01/17 07:51:00;;;;;;;23.70;10.63;;;0.40;99.90;;;;;;5055818;28;20208;-66
2024/01/17 07:53:26;;;;;;;26.70;9.70;;;0.60;99.90;;;;;;5060651;28;20182;-65
2024/01/17 07:55:52;;;;;;;26.30;10.60;;;0.60;99.90;;;;;;5060470;28;20178;-64
2024/01/17 07:58:18;;;;;;;28.67;11.37;;;0.70;99.90;;;;;;5055739;28;20474;-65
2024/01/17 08:00:44;;;;;;;22.20;9.10;;;0.80;99.90;;;;;;5054611;28;20185;-66
2024/01/17 08:03:09;;;;;;;21.93;8.77;;;0.90;99.90;;;;;;5069598;28;20226;-66
2024/01/17 08:05:35;;;;;;;20.63;9.07;;;1.00;99.90;;;;;;5052433;28;20226;-66
2024/01/17 08:08:00;;;;;;;20.40;10.40;;;1.00;99.90;;;;;;5055079;28;20192;-64
2024/01/17 08:10:26;;;;;;;20.93;11.07;;;1.10;99.90;;;;;;5056868;28;20201;-64
2024/01/17 08:12:51;;;;;;;22.10;10.07;;;1.10;99.90;;;;;;5054078;28;20228;-64
2024/01/17 08:15:17;;;;;;;25.23;11.30;;;1.10;99.90;;;;;;5061522;28;20665;-65
2024/01/17 08:17:44;;;;;;;16.50;8.57;;;1.20;99.90;;;;;;5065304;28;20186;-65
2024/01/17 08:20:12;;;;;;;17.07;9.10;;;1.20;99.90;;;;;;5063861;28;20421;-65
2024/01/17 08:22:39;;;;;;;18.97;8.93;;;1.20;99.90;;;;;;5054698;28;20420;-64
2024/01/17 08:25:05;;;;;;;18.97;7.77;;;1.30;99.90;;;;;;5066100;28;20511;-64
2024/01/17 08:27:31;;;;;;;20.13;8.47;;;1.30;99.90;;;;;;5053501;28;20761;-64
2024/01/17 08:29:57;;;;;;;19.30;9.47;;;1.30;99.90;;;;;;5052870;28;20423;-64
2024/01/17 08:32:22;;;;;;;20.23;8.30;;;1.30;99.90;;;;;;5058016;28;20188;-66
2024/01/17 08:34:48;;;;;;;14.70;7.70;;;1.30;99.90;;;;;;5066017;28;20212;-65
2024/01/17 08:37:13;;;;;;;12.90;8.00;;;1.40;99.90;;;;;;5062512;28;20269;-65
2024/01/17 08:39:43;;;;;;;16.07;9.60;;;1.40;99.90;;;;;;5066221;28;20193;-65
2024/01/17 08:42:10;;;;;;;21.30;8.67;;;1.40;99.90;;;;;;5053870;28;20935;-65
2024/01/17 08:44:35;;;;;;;18.00;9.20;;;1.40;99.90;;;;;;5060333;28;20469;-65
2024/01/17 08:47:02;;;;;;;19.37;8.63;;;1.50;99.90;;;;;;5059319;28;20420;-65
2024/01/17 08:49:28;;;;;;;15.60;7.20;;;1.50;99.90;;;;;;5052928;28;20170;-66
2024/01/17 08:51:54;;;;;;;13.90;6.13;;;1.50;99.90;;;;;;5049833;28;20478;-65
2024/01/17 08:54:19;;;;;;;12.77;7.57;;;1.50;99.90;;;;;;5070766;28;20196;-65
2024/01/17 08:56:46;;;;;;;17.93;8.10;;;1.60;99.90;;;;;;5068703;28;20199;-65
2024/01/17 08:59:12;;;;;;;13.17;6.10;;;1.60;99.90;;;;;;5055919;28;20178;-65
2024/01/17 09:01:37;;;;;;;12.10;6.80;;;1.60;99.90;;;;;;5055797;28;20434;-65
2024/01/17 09:04:03;;;;;;;16.30;7.50;;;1.60;99.90;;;;;;5056568;28;20279;-65
2024/01/17 09:06:29;;;;;;;9.70;5.93;;;1.60;99.90;;;;;;5058964;28;20256;-65
2024/01/17 09:08:54;;;;;;;9.93;5.80;;;1.70;99.90;;;;;;5051165;28;20692;-65
2024/01/17 09:11:20;;;;;;;15.87;6.33;;;1.70;99.90;;;;;;5056483;28;20768;-66
2024/01/17 09:13:46;;;;;;;11.47;5.70;;;1.70;99.90;;;;;;5061523;28;20190;-66
2024/01/17 09:16:11;;;;;;;11.20;6.17;;;1.70;99.90;;;;;;5050970;28;20268;-66
2024/01/17 09:18:37;;;;;;;18.43;9.17;;;1.70;99.90;;;;;;5050042;28;20547;-66
2024/01/17 09:21:03;;;;;;;19.50;9.37;;;1.70;99.90;;;;;;5068919;28;20185;-65
2024/01/17 09:23:28;;;;;;;18.37;10.60;;;1.60;99.90;;;;;;5058438;28;20184;-65
2024/01/17 09:25:54;;;;;;;22.33;9.07;;;1.50;99.90;;;;;;5055654;28;20197;-65
2024/01/17 09:28:19;;;;;;;21.60;10.47;;;1.50;99.90;;;;;;5068870;28;20189;-65
2024/01/17 09:30:45;;;;;;;19.70;10.47;;;1.40;99.90;;;;;;5050247;28;20654;-65
2024/01/17 09:33:10;;;;;;;25.50;10.60;;;1.40;99.90;;;;;;5050322;28;20197;-65
2024/01/17 09:35:38;;;;;;;19.50;9.70;;;1.30;99.90;;;;;;5062132;28;20189;-65
2024/01/17 09:38:06;;;;;;;17.17;9.70;;;1.30;99.90;;;;;;5049389;28;20177;-66
2024/01/17 09:40:31;;;;;;;23.13;10.40;;;1.30;99.90;;;;;;5063811;28;20447;-66
2024/01/17 09:42:58;;;;;;;27.50;11.60;;;1.40;99.90;;;;;;5049055;28;20880;-66
2024/01/17 09:45:25;;;;;;;32.70;10.50;;;1.40;99.90;;;;;;5050738;28;20181;-66
2024/01/17 09:47:54;;;;;;;20.73;9.53;;;1.50;99.90;;;;;;5058989;28;21221;-66
2024/01/17 09:50:19;;;;;;;31.90;11.03;;;1.50;99.90;;;;;;5048139;28;22390;-66
2024/01/17 09:52:46;;;;;;;30.43;12.40;;;1.50;99.90;;;;;;5052545;28;20519;-66
2024/01/17 09:55:13;;;;;;;31.50;10.90;;;1.50;99.90;;;;;;5054358;28;20192;-66
2024/01/17 09:57:45;;;;;;;18.50;9.47;;;1.60;99.90;;;;;;5066884;28;20450;-65
2024/01/17 10:00:11;;;;;;;22.57;10.37;;;1.60;99.90;;;;;;5050281;28;20494;-65
2024/01/17 10:02:38;;;;;;;21.30;9.87;;;1.60;99.90;;;;;;5049093;28;20950;-65
2024/01/17 10:05:07;;;;;;;20.70;10.20;;;1.70;99.90;;;;;;5050553;28;20514;-65
2024/01/17 10:07:33;;;;;;;22.33;10.40;;;1.70;99.90;;;;;;5060144;28;20906;-64
2024/01/17 10:09:58;;;;;;;21.23;9.50;;;1.70;99.90;;;;;;5054547;28;20507;-64
2024/01/17 10:12:24;;;;;;;16.97;8.37;;;1.70;99.90;;;;;;5054048;28;20292;-64
2024/01/17 10:14:50;;;;;;;16.50;8.60;;;1.70;99.90;;;;;;5053008;28;20185;-64
2024/01/17 10:17:15;;;;;;;14.00;7.70;;;1.70;99.90;;;;;;5050850;28;20455;-65
2024/01/17 10:19:41;;;;;;;12.13;6.67;;;1.70;99.90;;;;;;5049975;28;20224;-65
2024/01/17 10:22:10;;;;;;;17.80;6.53;;;1.80;99.90;;;;;;5050452;28;20186;-66
2024/01/17 10:24:36;;;;;;;10.07;5.87;;;2.60;99.90;;;;;;5052674;28;20595;-66
2024/01/17 10:27:03;;;;;;;16.20;6.40;;;1.80;99.90;;;;;;5062884;28;20451;-65
2024/01/17 10:29:32;;;;;;;10.17;5.60;;;1.80;99.90;;;;;;5050003;28;20420;-64
2024/01/17 10:32:01;;;;;;;10.07;4.77;;;1.90;99.90;;;;;;5052817;28;20536;-65
2024/01/17 10:34:29;;;;;;;10.07;4.77;;;1.90;99.90;;;;;;5064940;28;20444;-65
2024/01/17 10:36:55;;;;;;;10.40;5.47;;;1.90;99.90;;;;;;5053154;28;20502;-65
2024/01/17 10:39:22;;;;;;;10.60;5.87;;;1.90;99.90;;;;;;5067546;28;20431;-65
2024/01/17 10:41:54;;;;;;;12.77;6.30;;;1.90;99.90;;;;;;5056891;28;20185;-65
2024/01/17 10:44:30;;;;;;;13.63;7.10;;;2.00;99.90;;;;;;5050294;28;20466;-65
2024/01/17 10:46:56;;;;;;;11.80;5.87;;;2.10;99.90;;;;;;5029181;28;20429;-65
2024/01/17 10:49:23;;;;;;;14.97;7.33;;;2.10;99.90;;;;;;5050563;28;20412;-65
2024/01/17 10:52:09;;;;;;;19.37;8.93;;;2.90;99.90;;;;;;5052484;28;20557;-65
2024/01/17 10:54:50;;;;;;;19.97;9.20;;;2.30;99.90;;;;;;5044389;28;20428;-65
2024/01/17 10:57:15;;;;;;;21.83;10.30;;;2.30;99.90;;;;;;5048864;28;20419;-65
2024/01/17 10:59:47;;;;;;;15.93;9.03;;;2.90;99.90;;;;;;5048088;28;20420;-65
2024/01/17 11:02:21;;;;;;;11.17;5.10;;;2.40;99.90;;;;;;5047447;28;20189;-66
2024/01/17 11:04:55;;;;;;;6.47;3.30;;;2.40;99.90;;;;;;5048469;28;20477;-66
2024/01/17 11:07:22;;;;;;;4.30;2.70;;;2.50;99.90;;;;;;5049370;28;20411;-66
2024/01/17 11:09:49;;;;;;;3.60;2.20;;;2.50;99.90;;;;;;5045334;28;20436;-66
2024/01/17 11:12:16;;;;;;;7.03;2.67;;;2.60;99.90;;;;;;5050529;28;20467;-65
2024/01/17 11:14:42;;;;;;;4.30;2.73;;;2.60;99.90;;;;;;5049979;28;20426;-65
2024/01/17 11:17:10;;;;;;;8.03;3.87;;;2.70;99.90;;;;;;5058266;28;20568;-64
2024/01/17 11:19:37;;;;;;;6.47;3.60;;;2.70;99.90;;;;;;5044011;28;20434;-65
2024/01/17 11:22:03;;;;;;;5.57;3.00;;;2.90;99.90;;;;;;5044280;28;20446;-65
2024/01/17 11:24:42;;;;;;;6.10;2.60;;;3.00;99.90;;;;;;5054492;28;21003;-64
2024/01/17 11:27:36;;;;;;;7.40;2.60;;;2.80;99.90;;;;;;5029636;28;20451;-64
2024/01/17 11:30:15;;;;;;;2.60;1.70;;;3.00;99.90;;;;;;5047097;28;20775;-63
2024/01/17 11:33:03;;;;;;;2.80;1.90;;;3.00;99.90;;;;;;5062596;28;20793;-63
2024/01/17 11:35:47;;;;;;;3.40;2.07;;;3.10;99.90;;;;;;5051451;28;20404;-63
2024/01/17 11:38:27;;;;;;;3.97;2.00;;;3.20;99.90;;;;;;5059284;28;20469;-63
2024/01/17 11:40:57;;;;;;;3.13;2.03;;;3.30;99.90;;;;;;5049508;28;20480;-66
2024/01/17 11:43:29;;;;;;;5.60;2.93;;;3.60;99.90;;;;;;5053875;28;20427;-65
2024/01/17 11:45:55;;;;;;;5.07;2.37;;;3.60;99.90;;;;;;5049408;28;20459;-64
2024/01/17 11:48:25;;;;;;;6.70;1.80;;;3.60;99.90;;;;;;5048833;28;20881;-64
2024/01/17 11:51:04;;;;;;;8.97;1.63;;;3.50;99.90;;;;;;5038171;28;20237;-64
2024/01/17 11:53:31;;;;;;;2.87;1.87;;;3.50;99.90;;;;;;5051442;28;20461;-64
2024/01/17 11:55:59;;;;;;;4.50;2.37;;;3.80;99.90;;;;;;5061310;28;20417;-64
2024/01/17 11:58:45;;;;;;;7.67;2.07;;;3.80;99.90;;;;;;5052475;28;20424;-64
2024/01/17 12:01:18;;;;;;;2.67;1.80;;;3.90;99.90;;;;;;5040272;28;20463;-64
2024/01/17 12:03:44;;;;;;;5.03;2.30;;;3.90;99.90;;;;;;5062752;28;20417;-64
2024/01/17 12:06:11;;;;;;;2.87;1.63;;;4.10;99.90;;;;;;5054133;28;20432;-64
2024/01/17 12:08:37;;;;;;;4.23;2.10;;;4.00;99.90;;;;;;5053062;28;20679;-64
2024/01/17 12:11:03;;;;;;;3.57;2.40;;;4.20;99.90;;;;;;5052708;28;20471;-65
2024/01/17 12:13:29;;;;;;;5.77;2.77;;;4.00;99.90;;;;;;5053507;28;20463;-65
2024/01/17 12:15:56;;;;;;;4.00;2.60;;;4.00;99.90;;;;;;5052283;28;20459;-65
2024/01/17 12:18:26;;;;;;;4.57;2.90;;;4.00;99.90;;;;;;5054916;28;20185;-65
2024/01/17 12:20:54;;;;;;;5.03;2.50;;;4.00;99.90;;;;;;5052255;28;20499;-64
2024/01/17 12:23:22;;;;;;;4.63;2.17;;;3.90;99.90;;;;;;5065783;28;20440;-64
2024/01/17 12:25:49;;;;;;;7.13;2.20;;;3.80;99.90;;;;;;5058779;28;20424;-64
2024/01/17 12:28:19;;;;;;;5.07;2.40;;;3.80;99.90;;;;;;5051679;28;20474;-64
2024/01/17 12:31:02;;;;;;;5.07;3.03;;;3.80;99.90;;;;;;5051082;28;20477;-65
2024/01/17 12:33:30;;;;;;;3.83;2.50;;;3.90;99.90;;;;;;5042442;28;20404;-64
2024/01/17 12:35:57;;;;;;;4.83;2.33;;;3.90;99.90;;;;;;5065811;28;20419;-64
2024/01/17 12:38:23;;;;;;;5.03;2.80;;;4.00;99.90;;;;;;5060765;28;20954;-64